sensor_id;sensor_type;location;lat;lon;timestamp;temperature;humidity
39103;DHT22;24847;48.218;16.414;2022-12-11T00:03:56;2.30;99.90
39103;DHT22;24847;48.218;16.414;2022-12-11T00:08:59;2.20;99.90
39103;DHT22;24847;48.218;16.414;2022-12-11T00:14:01;2.30;99.90
39103;DHT22;24847;48.218;16.414;2022-12-11T00:19:05;2.30;99.90
39103;DHT22;24847;48.218;16.414;2022-12-11T00:24:08;2.20;99.90
39103;DHT22;24847;48.218;16.414;2022-12-11T00:29:11;2.20;99.90
39103;DHT22;24847;48.218;16.414;2022-12-11T00:34:18;2.20;99.90
39103;DHT22;24847;48.218;16.414;2022-12-11T00:39:21;2.30;99.90
39103;DHT22;24847;48.218;16.414;2022-12-11T00:44:23;2.30;99.90
39103;DHT22;24847;48.218;16.414;2022-12-11T00:49:27;2.30;99.90
39103;DHT22;24847;48.218;16.414;2022-12-11T00:54:29;2.10;99.90
39103;DHT22;24847;48.218;16.414;2022-12-11T00:59:32;2.10;99.90
39103;DHT22;24847;48.218;16.414;2022-12-11T01:04:36;1.90;99.90
39103;DHT22;24847;48.218;16.414;2022-12-11T01:09:38;2.00;99.90
39103;DHT22;24847;48.218;16.414;2022-12-11T01:14:58;1.90;99.90
39103;DHT22;24847;48.218;16.414;2022-12-11T01:20:02;2.00;99.90
39103;DHT22;24847;48.218;16.414;2022-12-11T01:25:06;2.00;99.90
39103;DHT22;24847;48.218;16.414;2022-12-11T01:30:10;2.00;99.90
39103;DHT22;24847;48.218;16.414;2022-12-11T01:35:15;1.80;99.90
39103;DHT22;24847;48.218;16.414;2022-12-11T01:40:19;1.90;99.90
39103;DHT22;24847;48.218;16.414;2022-12-11T01:45:28;1.80;99.90
39103;DHT22;24847;48.218;16.414;2022-12-11T01:50:43;2.00;99.90
39103;DHT22;24847;48.218;16.414;2022-12-11T01:55:48;1.80;99.90
39103;DHT22;24847;48.218;16.414;2022-12-11T02:00:52;1.80;99.90
39103;DHT22;24847;48.218;16.414;2022-12-11T02:05:59;1.90;99.90
39103;DHT22;24847;48.218;16.414;2022-12-11T02:11:07;1.70;99.90
39103;DHT22;24847;48.218;16.414;2022-12-11T02:16:18;1.80;99.90
39103;DHT22;24847;48.218;16.414;2022-12-11T02:21:30;1.80;99.90
39103;DHT22;24847;48.218;16.414;2022-12-11T02:26:56;1.80;99.90
39103;DHT22;24847;48.218;16.414;2022-12-11T02:32:11;1.80;99.90
39103;DHT22;24847;48.218;16.414;2022-12-11T02:37:19;1.80;99.90
39103;DHT22;24847;48.218;16.414;2022-12-11T02:42:27;1.80;99.90
39103;DHT22;24847;48.218;16.414;2022-12-11T02:47:33;1.70;99.90
39103;DHT22;24847;48.218;16.414;2022-12-11T02:52:36;1.70;99.90
39103;DHT22;24847;48.218;16.414;2022-12-11T02:57:44;1.80;99.90
39103;DHT22;24847;48.218;16.414;2022-12-11T03:02:50;1.60;99.90
39103;DHT22;24847;48.218;16.414;2022-12-11T03:07:52;1.70;99.90
39103;DHT22;24847;48.218;16.414;2022-12-11T03:12:57;1.60;99.90
39103;DHT22;24847;48.218;16.414;2022-12-11T03:18:07;1.60;99.90
39103;DHT22;24847;48.218;16.414;2022-12-11T03:23:18;1.60;99.90
39103;DHT22;24847;48.218;16.414;2022-12-11T03:28:26;1.50;99.90
39103;DHT22;24847;48.218;16.414;2022-12-11T03:33:34;1.50;99.90
39103;DHT22;24847;48.218;16.414;2022-12-11T03:38:43;1.60;99.90
39103;DHT22;24847;48.218;16.414;2022-12-11T03:43:51;1.50;99.90
39103;DHT22;24847;48.218;16.414;2022-12-11T03:48:59;1.40;99.90
39103;DHT22;24847;48.218;16.414;2022-12-11T03:54:03;1.30;99.90
39103;DHT22;24847;48.218;16.414;2022-12-11T03:59:06;1.20;99.90
39103;DHT22;24847;48.218;16.414;2022-12-11T04:04:10;1.30;99.90
39103;DHT22;24847;48.218;16.414;2022-12-11T04:09:13;1.30;99.90
39103;DHT22;24847;48.218;16.414;2022-12-11T04:14:15;1.30;99.90
39103;DHT22;24847;48.218;16.414;2022-12-11T04:19:36;1.10;99.90
39103;DHT22;24847;48.218;16.414;2022-12-11T04:24:55;1.20;99.90
39103;DHT22;24847;48.218;16.414;2022-12-11T04:29:58;1.30;99.90
39103;DHT22;24847;48.218;16.414;2022-12-11T04:35:01;1.00;99.90
39103;DHT22;24847;48.218;16.414;2022-12-11T04:40:05;0.80;99.90
39103;DHT22;24847;48.218;16.414;2022-12-11T04:45:10;0.70;99.90
39103;DHT22;24847;48.218;16.414;2022-12-11T04:50:15;0.70;99.90
39103;DHT22;24847;48.218;16.414;2022-12-11T04:55:18;0.70;99.90
39103;DHT22;24847;48.218;16.414;2022-12-11T05:00:20;0.70;99.90
39103;DHT22;24847;48.218;16.414;2022-12-11T05:05:24;0.70;99.90
39103;DHT22;24847;48.218;16.414;2022-12-11T05:10:27;0.50;99.90
39103;DHT22;24847;48.218;16.414;2022-12-11T05:15:29;0.40;99.90
39103;DHT22;24847;48.218;16.414;2022-12-11T05:20:33;0.50;99.90
39103;DHT22;24847;48.218;16.414;2022-12-11T05:25:35;0.30;99.90
39103;DHT22;24847;48.218;16.414;2022-12-11T05:30:37;0.30;99.90
39103;DHT22;24847;48.218;16.414;2022-12-11T05:35:47;0.30;99.90
39103;DHT22;24847;48.218;16.414;2022-12-11T05:40:55;0.10;99.90
39103;DHT22;24847;48.218;16.414;2022-12-11T05:46:04;0.20;99.90
39103;DHT22;24847;48.218;16.414;2022-12-11T05:51:09;0.10;99.90
39103;DHT22;24847;48.218;16.414;2022-12-11T05:56:12;0.10;99.90
39103;DHT22;24847;48.218;16.414;2022-12-11T06:01:18;0.10;99.90
39103;DHT22;24847;48.218;16.414;2022-12-11T06:06:24;0.10;99.90
39103;DHT22;24847;48.218;16.414;2022-12-11T06:11:28;0.20;99.90
39103;DHT22;24847;48.218;16.414;2022-12-11T06:16:32;0.10;99.90
39103;DHT22;24847;48.218;16.414;2022-12-11T06:21:35;0.20;99.90
39103;DHT22;24847;48.218;16.414;2022-12-11T06:26:38;0.30;99.90
39103;DHT22;24847;48.218;16.414;2022-12-11T06:31:40;0.20;99.90
39103;DHT22;24847;48.218;16.414;2022-12-11T06:36:44;0.30;99.90
39103;DHT22;24847;48.218;16.414;2022-12-11T06:41:46;0.40;99.90
39103;DHT22;24847;48.218;16.414;2022-12-11T06:46:48;0.40;99.90
39103;DHT22;24847;48.218;16.414;2022-12-11T06:51:52;0.50;99.90
39103;DHT22;24847;48.218;16.414;2022-12-11T06:56:54;0.70;99.90
39103;DHT22;24847;48.218;16.414;2022-12-11T07:01:56;0.60;99.90
39103;DHT22;24847;48.218;16.414;2022-12-11T07:07:00;0.50;99.90
39103;DHT22;24847;48.218;16.414;2022-12-11T07:12:02;0.50;99.90
39103;DHT22;24847;48.218;16.414;2022-12-11T07:17:04;0.60;99.90
39103;DHT22;24847;48.218;16.414;2022-12-11T07:22:08;0.60;99.90
39103;DHT22;24847;48.218;16.414;2022-12-11T07:27:10;0.70;99.90
39103;DHT22;24847;48.218;16.414;2022-12-11T07:32:13;0.70;99.90
39103;DHT22;24847;48.218;16.414;2022-12-11T07:37:16;0.90;99.90
39103;DHT22;24847;48.218;16.414;2022-12-11T07:42:19;0.60;99.90
39103;DHT22;24847;48.218;16.414;2022-12-11T07:47:21;0.70;99.90
39103;DHT22;24847;48.218;16.414;2022-12-11T07:52:25;0.60;99.90
39103;DHT22;24847;48.218;16.414;2022-12-11T07:57:27;0.70;99.90
39103;DHT22;24847;48.218;16.414;2022-12-11T08:02:29;0.60;99.90
39103;DHT22;24847;48.218;16.414;2022-12-11T08:07:34;0.70;99.90
39103;DHT22;24847;48.218;16.414;2022-12-11T08:12:36;0.90;99.90
39103;DHT22;24847;48.218;16.414;2022-12-11T08:17:38;0.70;99.90
39103;DHT22;24847;48.218;16.414;2022-12-11T08:22:42;0.80;99.90
39103;DHT22;24847;48.218;16.414;2022-12-11T08:27:44;1.00;99.90
39103;DHT22;24847;48.218;16.414;2022-12-11T08:32:47;0.60;99.90
39103;DHT22;24847;48.218;16.414;2022-12-11T08:37:51;0.80;99.90
39103;DHT22;24847;48.218;16.414;2022-12-11T08:42:53;0.90;99.90
39103;DHT22;24847;48.218;16.414;2022-12-11T08:47:57;1.00;99.90
39103;DHT22;24847;48.218;16.414;2022-12-11T08:53:00;1.00;99.90
39103;DHT22;24847;48.218;16.414;2022-12-11T08:58:03;1.00;99.90
39103;DHT22;24847;48.218;16.414;2022-12-11T09:03:05;1.20;99.90
39103;DHT22;24847;48.218;16.414;2022-12-11T09:08:08;1.40;99.90
39103;DHT22;24847;48.218;16.414;2022-12-11T09:13:11;1.40;99.90
39103;DHT22;24847;48.218;16.414;2022-12-11T09:18:13;1.40;99.90
39103;DHT22;24847;48.218;16.414;2022-12-11T09:23:17;1.50;99.90
39103;DHT22;24847;48.218;16.414;2022-12-11T09:28:19;1.30;99.90
39103;DHT22;24847;48.218;16.414;2022-12-11T09:33:22;1.20;99.90
39103;DHT22;24847;48.218;16.414;2022-12-11T09:38:25;1.20;99.90
39103;DHT22;24847;48.218;16.414;2022-12-11T09:43:35;1.40;99.90
39103;DHT22;24847;48.218;16.414;2022-12-11T09:48:41;1.20;99.90
39103;DHT22;24847;48.218;16.414;2022-12-11T09:53:47;1.10;99.90
39103;DHT22;24847;48.218;16.414;2022-12-11T09:59:05;1.30;99.90
39103;DHT22;24847;48.218;16.414;2022-12-11T10:04:23;1.20;99.90
39103;DHT22;24847;48.218;16.414;2022-12-11T10:09:43;1.40;99.90
39103;DHT22;24847;48.218;16.414;2022-12-11T10:15:03;1.30;99.90
39103;DHT22;24847;48.218;16.414;2022-12-11T10:20:20;1.30;99.90
39103;DHT22;24847;48.218;16.414;2022-12-11T10:25:27;1.40;99.90
39103;DHT22;24847;48.218;16.414;2022-12-11T10:30:36;1.50;99.90
39103;DHT22;24847;48.218;16.414;2022-12-11T10:35:42;1.40;99.90
39103;DHT22;24847;48.218;16.414;2022-12-11T10:40:50;1.50;99.90
39103;DHT22;24847;48.218;16.414;2022-12-11T10:45:53;1.50;99.90
39103;DHT22;24847;48.218;16.414;2022-12-11T10:50:59;1.60;99.90
39103;DHT22;24847;48.218;16.414;2022-12-11T10:56:04;1.70;99.90
39103;DHT22;24847;48.218;16.414;2022-12-11T11:01:08;1.60;99.90
39103;DHT22;24847;48.218;16.414;2022-12-11T11:06:15;1.30;99.90
39103;DHT22;24847;48.218;16.414;2022-12-11T11:11:26;1.20;99.90
39103;DHT22;24847;48.218;16.414;2022-12-11T11:16:30;1.20;99.90
39103;DHT22;24847;48.218;16.414;2022-12-11T11:21:33;1.20;99.90
39103;DHT22;24847;48.218;16.414;2022-12-11T11:26:37;1.20;99.90
39103;DHT22;24847;48.218;16.414;2022-12-11T11:31:40;1.30;99.90
39103;DHT22;24847;48.218;16.414;2022-12-11T11:36:43;1.50;99.90
39103;DHT22;24847;48.218;16.414;2022-12-11T11:41:51;1.40;99.90
39103;DHT22;24847;48.218;16.414;2022-12-11T11:47:01;1.40;99.90
39103;DHT22;24847;48.218;16.414;2022-12-11T11:52:11;1.70;99.90
39103;DHT22;24847;48.218;16.414;2022-12-11T11:57:22;2.00;99.90
39103;DHT22;24847;48.218;16.414;2022-12-11T12:02:28;2.30;99.90
39103;DHT22;24847;48.218;16.414;2022-12-11T12:07:38;3.00;99.90
39103;DHT22;24847;48.218;16.414;2022-12-11T12:12:51;2.00;99.90
39103;DHT22;24847;48.218;16.414;2022-12-11T12:17:57;1.80;99.90
39103;DHT22;24847;48.218;16.414;2022-12-11T12:23:20;1.80;99.90
39103;DHT22;24847;48.218;16.414;2022-12-11T12:28:40;1.40;99.90
39103;DHT22;24847;48.218;16.414;2022-12-11T12:33:52;1.10;99.90
39103;DHT22;24847;48.218;16.414;2022-12-11T12:39:06;1.10;99.90
39103;DHT22;24847;48.218;16.414;2022-12-11T12:44:15;0.90;99.90
39103;DHT22;24847;48.218;16.414;2022-12-11T12:49:27;0.90;99.90
39103;DHT22;24847;48.218;16.414;2022-12-11T12:54:34;1.00;99.90
39103;DHT22;24847;48.218;16.414;2022-12-11T12:59:39;1.00;99.90
39103;DHT22;24847;48.218;16.414;2022-12-11T13:04:43;0.90;99.90
39103;DHT22;24847;48.218;16.414;2022-12-11T13:10:00;0.90;99.90
39103;DHT22;24847;48.218;16.414;2022-12-11T13:15:23;0.80;99.90
39103;DHT22;24847;48.218;16.414;2022-12-11T13:20:31;0.90;99.90
39103;DHT22;24847;48.218;16.414;2022-12-11T13:25:47;0.90;99.90
39103;DHT22;24847;48.218;16.414;2022-12-11T13:31:31;0.90;99.90
39103;DHT22;24847;48.218;16.414;2022-12-11T13:36:37;0.60;99.90
39103;DHT22;24847;48.218;16.414;2022-12-11T13:41:44;0.80;99.90
39103;DHT22;24847;48.218;16.414;2022-12-11T13:46:52;0.80;99.90
39103;DHT22;24847;48.218;16.414;2022-12-11T13:51:57;0.60;99.90
39103;DHT22;24847;48.218;16.414;2022-12-11T13:57:03;0.70;99.90
39103;DHT22;24847;48.218;16.414;2022-12-11T14:02:22;0.80;99.90
39103;DHT22;24847;48.218;16.414;2022-12-11T14:07:30;0.80;99.90
39103;DHT22;24847;48.218;16.414;2022-12-11T14:12:34;0.70;99.90
39103;DHT22;24847;48.218;16.414;2022-12-11T14:17:42;0.80;99.90
39103;DHT22;24847;48.218;16.414;2022-12-11T14:22:45;0.50;99.90
39103;DHT22;24847;48.218;16.414;2022-12-11T14:27:52;0.50;99.90
39103;DHT22;24847;48.218;16.414;2022-12-11T14:33:02;0.50;99.90
39103;DHT22;24847;48.218;16.414;2022-12-11T14:38:12;0.40;99.90
39103;DHT22;24847;48.218;16.414;2022-12-11T14:43:22;0.40;99.90
39103;DHT22;24847;48.218;16.414;2022-12-11T14:48:33;0.40;99.90
39103;DHT22;24847;48.218;16.414;2022-12-11T14:53:40;0.30;99.90
39103;DHT22;24847;48.218;16.414;2022-12-11T14:58:50;0.30;99.90
39103;DHT22;24847;48.218;16.414;2022-12-11T15:04:04;0.40;99.90
39103;DHT22;24847;48.218;16.414;2022-12-11T15:09:16;0.50;99.90
39103;DHT22;24847;48.218;16.414;2022-12-11T15:14:22;0.60;99.90
39103;DHT22;24847;48.218;16.414;2022-12-11T15:19:29;0.50;99.90
39103;DHT22;24847;48.218;16.414;2022-12-11T15:24:36;0.50;99.90
39103;DHT22;24847;48.218;16.414;2022-12-11T15:29:40;0.30;99.90
39103;DHT22;24847;48.218;16.414;2022-12-11T15:34:45;0.40;99.90
39103;DHT22;24847;48.218;16.414;2022-12-11T15:39:49;0.20;99.90
39103;DHT22;24847;48.218;16.414;2022-12-11T15:44:52;0.40;99.90
39103;DHT22;24847;48.218;16.414;2022-12-11T15:50:00;0.40;99.90
39103;DHT22;24847;48.218;16.414;2022-12-11T15:55:04;0.20;99.90
39103;DHT22;24847;48.218;16.414;2022-12-11T16:00:13;0.20;99.90
39103;DHT22;24847;48.218;16.414;2022-12-11T16:05:17;0.30;99.90
39103;DHT22;24847;48.218;16.414;2022-12-11T16:10:20;0.00;99.90
39103;DHT22;24847;48.218;16.414;2022-12-11T16:15:23;0.10;99.90
39103;DHT22;24847;48.218;16.414;2022-12-11T16:20:28;0.30;99.90
39103;DHT22;24847;48.218;16.414;2022-12-11T16:25:32;0.20;99.90
39103;DHT22;24847;48.218;16.414;2022-12-11T16:30:36;0.30;99.90
39103;DHT22;24847;48.218;16.414;2022-12-11T16:35:41;0.40;99.90
39103;DHT22;24847;48.218;16.414;2022-12-11T16:40:44;0.60;99.90
39103;DHT22;24847;48.218;16.414;2022-12-11T16:45:53;0.30;99.90
39103;DHT22;24847;48.218;16.414;2022-12-11T16:50:58;0.10;99.90
39103;DHT22;24847;48.218;16.414;2022-12-11T16:56:02;0.30;99.90
39103;DHT22;24847;48.218;16.414;2022-12-11T17:01:08;0.20;99.90
39103;DHT22;24847;48.218;16.414;2022-12-11T17:06:15;0.10;99.90
39103;DHT22;24847;48.218;16.414;2022-12-11T17:11:19;0.10;99.90
39103;DHT22;24847;48.218;16.414;2022-12-11T17:16:26;0.20;99.90
39103;DHT22;24847;48.218;16.414;2022-12-11T17:21:37;0.10;99.90
39103;DHT22;24847;48.218;16.414;2022-12-11T17:26:40;0.20;99.90
39103;DHT22;24847;48.218;16.414;2022-12-11T17:31:44;0.20;99.90
39103;DHT22;24847;48.218;16.414;2022-12-11T17:36:50;0.40;99.90
39103;DHT22;24847;48.218;16.414;2022-12-11T17:41:55;0.20;99.90
39103;DHT22;24847;48.218;16.414;2022-12-11T17:46:59;0.20;99.90
39103;DHT22;24847;48.218;16.414;2022-12-11T17:52:03;0.10;99.90
39103;DHT22;24847;48.218;16.414;2022-12-11T17:57:06;0.00;99.90
39103;DHT22;24847;48.218;16.414;2022-12-11T18:02:09;-0.30;99.90
39103;DHT22;24847;48.218;16.414;2022-12-11T18:07:14;-0.50;99.90
39103;DHT22;24847;48.218;16.414;2022-12-11T18:12:22;-0.30;99.90
39103;DHT22;24847;48.218;16.414;2022-12-11T18:17:26;-0.40;99.90
39103;DHT22;24847;48.218;16.414;2022-12-11T18:22:30;-0.80;99.90
39103;DHT22;24847;48.218;16.414;2022-12-11T18:27:34;-0.80;99.90
39103;DHT22;24847;48.218;16.414;2022-12-11T18:32:39;-0.80;99.90
39103;DHT22;24847;48.218;16.414;2022-12-11T18:37:45;-0.60;99.90
39103;DHT22;24847;48.218;16.414;2022-12-11T18:42:47;-0.80;99.90
39103;DHT22;24847;48.218;16.414;2022-12-11T18:47:52;-0.80;99.90
39103;DHT22;24847;48.218;16.414;2022-12-11T18:52:58;-0.80;99.90
39103;DHT22;24847;48.218;16.414;2022-12-11T18:58:12;-0.90;99.90
39103;DHT22;24847;48.218;16.414;2022-12-11T19:03:17;-0.90;99.90
39103;DHT22;24847;48.218;16.414;2022-12-11T19:08:22;-0.60;99.90
39103;DHT22;24847;48.218;16.414;2022-12-11T19:13:28;-0.70;99.90
39103;DHT22;24847;48.218;16.414;2022-12-11T19:18:31;-0.40;99.90
39103;DHT22;24847;48.218;16.414;2022-12-11T19:23:38;-0.30;99.90
39103;DHT22;24847;48.218;16.414;2022-12-11T19:28:43;-0.20;99.90
39103;DHT22;24847;48.218;16.414;2022-12-11T19:33:47;-0.40;99.90
39103;DHT22;24847;48.218;16.414;2022-12-11T19:38:54;-0.40;99.90
39103;DHT22;24847;48.218;16.414;2022-12-11T19:43:58;-0.40;99.90
39103;DHT22;24847;48.218;16.414;2022-12-11T19:49:10;-0.20;99.90
39103;DHT22;24847;48.218;16.414;2022-12-11T19:54:16;-0.30;99.90
39103;DHT22;24847;48.218;16.414;2022-12-11T19:59:20;-0.10;99.90
39103;DHT22;24847;48.218;16.414;2022-12-11T20:04:26;0.00;99.90
39103;DHT22;24847;48.218;16.414;2022-12-11T20:09:31;-0.20;99.90
39103;DHT22;24847;48.218;16.414;2022-12-11T20:14:35;-0.10;99.90
39103;DHT22;24847;48.218;16.414;2022-12-11T20:19:38;0.00;99.90
39103;DHT22;24847;48.218;16.414;2022-12-11T20:24:43;0.00;99.90
39103;DHT22;24847;48.218;16.414;2022-12-11T20:29:46;0.10;99.90
39103;DHT22;24847;48.218;16.414;2022-12-11T20:34:49;-0.30;99.90
39103;DHT22;24847;48.218;16.414;2022-12-11T20:39:55;-0.20;99.90
39103;DHT22;24847;48.218;16.414;2022-12-11T20:44:58;-0.30;99.90
39103;DHT22;24847;48.218;16.414;2022-12-11T20:50:02;-0.30;99.90
39103;DHT22;24847;48.218;16.414;2022-12-11T20:55:09;-0.40;99.90
39103;DHT22;24847;48.218;16.414;2022-12-11T21:00:16;-0.50;99.90
39103;DHT22;24847;48.218;16.414;2022-12-11T21:05:20;-0.40;99.90
39103;DHT22;24847;48.218;16.414;2022-12-11T21:10:25;-0.50;99.90
39103;DHT22;24847;48.218;16.414;2022-12-11T21:15:31;-0.40;99.90
39103;DHT22;24847;48.218;16.414;2022-12-11T21:20:36;-0.60;99.90
39103;DHT22;24847;48.218;16.414;2022-12-11T21:25:41;-0.40;99.90
39103;DHT22;24847;48.218;16.414;2022-12-11T21:30:44;-0.40;99.90
39103;DHT22;24847;48.218;16.414;2022-12-11T21:35:53;-0.10;99.90
39103;DHT22;24847;48.218;16.414;2022-12-11T21:41:06;-0.20;99.90
39103;DHT22;24847;48.218;16.414;2022-12-11T21:46:10;-0.10;99.90
39103;DHT22;24847;48.218;16.414;2022-12-11T21:51:15;-0.10;99.90
39103;DHT22;24847;48.218;16.414;2022-12-11T21:56:21;-0.10;99.90
39103;DHT22;24847;48.218;16.414;2022-12-11T22:01:27;-0.20;99.90
39103;DHT22;24847;48.218;16.414;2022-12-11T22:06:32;-0.10;99.90
39103;DHT22;24847;48.218;16.414;2022-12-11T22:11:35;-0.10;99.90
39103;DHT22;24847;48.218;16.414;2022-12-11T22:16:37;-0.40;99.90
39103;DHT22;24847;48.218;16.414;2022-12-11T22:21:40;-0.10;99.90
39103;DHT22;24847;48.218;16.414;2022-12-11T22:26:44;-0.10;99.90
39103;DHT22;24847;48.218;16.414;2022-12-11T22:31:46;-0.30;99.90
39103;DHT22;24847;48.218;16.414;2022-12-11T22:36:50;-0.40;99.90
39103;DHT22;24847;48.218;16.414;2022-12-11T22:41:54;-0.30;99.90
39103;DHT22;24847;48.218;16.414;2022-12-11T22:46:56;-0.30;99.90
39103;DHT22;24847;48.218;16.414;2022-12-11T22:51:58;-0.40;99.90
39103;DHT22;24847;48.218;16.414;2022-12-11T22:57:02;-0.40;99.90
39103;DHT22;24847;48.218;16.414;2022-12-11T23:02:05;-0.30;99.90
39103;DHT22;24847;48.218;16.414;2022-12-11T23:07:07;-0.50;99.90
39103;DHT22;24847;48.218;16.414;2022-12-11T23:12:11;-0.30;99.90
39103;DHT22;24847;48.218;16.414;2022-12-11T23:17:13;-0.50;99.90
39103;DHT22;24847;48.218;16.414;2022-12-11T23:22:15;-0.30;99.90
39103;DHT22;24847;48.218;16.414;2022-12-11T23:27:19;-0.60;99.90
39103;DHT22;24847;48.218;16.414;2022-12-11T23:32:21;-0.30;99.90
39103;DHT22;24847;48.218;16.414;2022-12-11T23:37:24;-0.40;99.90
39103;DHT22;24847;48.218;16.414;2022-12-11T23:42:27;-0.40;99.90
39103;DHT22;24847;48.218;16.414;2022-12-11T23:47:30;-0.40;99.90
39103;DHT22;24847;48.218;16.414;2022-12-11T23:52:32;-0.20;99.90
39103;DHT22;24847;48.218;16.414;2022-12-11T23:57:36;-0.50;99.90
